TimeEST,TemperatureF,Dew PointF,Humidity,Sea Level PressureIn,VisibilityMPH,Wind Direction,Wind SpeedMPH,Gust SpeedMPH,PrecipitationIn,Events,Conditions,WindDirDegrees,DateUTC
12:55 AM,23.0,21.9,96,30.06,10.0,Calm,Calm,-,N/A,,Clear,0,2013-03-06 05:55:00
1:55 AM,19.4,19.0,98,30.07,10.0,Calm,Calm,-,N/A,,Clear,0,2013-03-06 06:55:00
2:55 AM,18.1,17.6,98,30.07,10.0,NE,5.8,-,N/A,,Clear,50,2013-03-06 07:55:00
3:55 AM,18.9,18.3,98,30.07,10.0,NE,8.1,-,N/A,,Clear,50,2013-03-06 08:55:00
4:55 AM,19.6,19.4,99,30.08,10.0,ENE,5.8,-,N/A,,Overcast,60,2013-03-06 09:55:00
5:55 AM,20.8,20.7,99,30.09,10.0,NE,3.5,-,N/A,,Overcast,40,2013-03-06 10:55:00
6:55 AM,22.5,22.3,99,30.11,10.0,ENE,5.8,-,N/A,,Overcast,60,2013-03-06 11:55:00
7:55 AM,25.2,24.8,99,30.13,10.0,East,6.9,-,N/A,,Overcast,80,2013-03-06 12:55:00
8:55 AM,27.7,27.5,99,30.14,10.0,ENE,8.1,-,N/A,,Overcast,70,2013-03-06 13:55:00
9:55 AM,33.8,29.5,84,30.12,10.0,ENE,10.4,-,N/A,,Mostly Cloudy,70,2013-03-06 14:55:00
10:55 AM,36.9,29.8,76,30.13,10.0,ENE,10.4,-,N/A,,Overcast,70,2013-03-06 15:55:00
11:10 AM,37.4,30.2,75,30.13,10.0,NE,9.2,-,N/A,,Overcast,40,2013-03-06 16:10:00
11:55 AM,37.6,30.7,76,30.13,10.0,NE,9.2,-,N/A,,Overcast,50,2013-03-06 16:55:00
12:55 PM,36.9,30.9,79,30.13,10.0,NNE,13.8,-,N/A,,Overcast,30,2013-03-06 17:55:00
1:55 PM,38.1,30.7,75,30.12,10.0,NE,15.0,-,N/A,,Overcast,40,2013-03-06 18:55:00
2:55 PM,38.5,30.4,73,30.13,10.0,NNE,12.7,-,N/A,,Overcast,30,2013-03-06 19:55:00
3:55 PM,38.5,30.6,73,30.12,10.0,NE,16.1,-,N/A,,Overcast,40,2013-03-06 20:55:00
4:55 PM,37.0,30.6,77,30.14,10.0,NNE,13.8,-,N/A,,Overcast,30,2013-03-06 21:55:00
5:55 PM,36.1,30.6,80,30.15,10.0,NE,11.5,-,N/A,,Overcast,40,2013-03-06 22:55:00
6:55 PM,36.7,29.3,75,30.16,10.0,ENE,15.0,-,N/A,,Overcast,60,2013-03-06 23:55:00
7:55 PM,34.9,29.3,80,30.17,10.0,NE,15.0,-,N/A,,Overcast,50,2013-03-07 00:55:00
8:55 PM,34.2,29.3,82,30.17,10.0,NE,15.0,-,N/A,,Overcast,50,2013-03-07 01:55:00
9:55 PM,33.6,29.3,84,30.17,10.0,ENE,8.1,-,N/A,,Overcast,60,2013-03-07 02:55:00
10:55 PM,33.1,28.8,84,30.15,10.0,ENE,9.2,-,N/A,,Overcast,60,2013-03-07 03:55:00
11:55 PM,32.7,28.6,85,30.15,10.0,East,6.9,-,N/A,,Overcast,90,2013-03-07 04:55:00